PWSweather.com
Personal Weather Stations
Station Observations
WISCHPK61
Green Bay Schmitt Park, Green Bay, WI 54311

Green Bay Schmitt ParkGreen Bay, WI 54311

Lat: 44.514277, Lon: -87.935067

Elevation: 735

Station Type: Acu Rite Pro Weather Center model 02032C

http://greenbayweathercam.com

High Low Average
Temperature 82.3°F27.9°C 67.3°F19.6°C 74.3°F23.5°C
Dew Point 82.0°F27.8°C 67.0°F19.4°C 74.0°F23.3°C
Winds 2.3 mph 3.7 kmh Calm Calm Calm SCalm S
Wind Gusts 5.8 mph9.3 kmh -- 1.0 mph1.6 kmh
Humidity 99% 99% 99%
Pressure 29.15 in987.1 mb 28.98 in981.4 mb -
Precipitation 1.21 in30.7 mm - -
Hour Temp Dew Point Humidity Winds Wind Gusts Pressure Precip Precip Rate Daily Precip Total
12:00 AM 67.8°F19.9°C 67.5°F19.7°C 99% Calm Calm -- 29.19 in988.5 mb - 0.02 in0.5 mm 0.02 in0.5 mm
01:00 AM 67.8°F19.9°C 67.5°F19.7°C 99% Calm Calm -- 29.15 in987.1 mb - 0.00 in0.0 mm 0.02 in0.5 mm
02:00 AM 67.8°F19.9°C 67.5°F19.7°C 99% Calm Calm -- 29.15 in987.1 mb - 0.14 in3.6 mm 0.14 in3.6 mm
03:00 AM 68.4°F20.2°C 68.1°F20.1°C 99% Calm Calm 1.2 mph1.9 kmh 29.11 in985.8 mb - 0.07 in1.8 mm 0.21 in5.3 mm
04:00 AM 69.0°F20.6°C 68.7°F20.4°C 99% Calm Calm 1.2 mph1.9 kmh 29.12 in986.1 mb - 0.01 in0.3 mm 0.22 in5.6 mm
05:00 AM 69.6°F20.9°C 69.3°F20.7°C 99% Calm Calm -- 29.11 in985.8 mb - 0.13 in3.3 mm 0.35 in8.9 mm
06:00 AM 69.6°F20.9°C 69.3°F20.7°C 99% Calm Calm -- 29.10 in985.4 mb - 0.01 in0.3 mm 0.36 in9.1 mm
07:00 AM 69.8°F21.0°C 69.5°F20.8°C 99% Calm Calm -- 29.13 in986.5 mb - 0.00 in0.0 mm 0.36 in9.1 mm
08:00 AM 71.1°F21.7°C 70.8°F21.6°C 99% Calm Calm -- 29.12 in986.1 mb - 0.00 in0.0 mm 0.36 in9.1 mm
09:00 AM 72.5°F22.5°C 72.2°F22.3°C 99% Calm Calm 1.2 mph1.9 kmh 29.11 in985.8 mb - 0.05 in1.3 mm 0.41 in10.4 mm
10:00 AM 72.8°F22.7°C 72.5°F22.5°C 99% Calm Calm -- 29.13 in986.5 mb - 0.18 in4.6 mm 0.56 in14.2 mm
11:00 AM 75.0°F23.9°C 74.7°F23.7°C 99% Calm Calm -- 29.14 in986.8 mb - 0.05 in1.3 mm 0.61 in15.5 mm
12:00 PM 75.7°F24.3°C 75.4°F24.1°C 99% Calm Calm -- 29.13 in986.5 mb - 0.00 in0.0 mm 0.61 in15.5 mm
01:00 PM 78.4°F25.8°C 78.1°F25.6°C 99% Calm Calm -- 29.09 in985.1 mb - 0.00 in0.0 mm 0.61 in15.5 mm
02:00 PM 80.2°F26.8°C 79.9°F26.6°C 99% 2.3 mph S3.7 kmh S 5.8 mph9.3 kmh 29.10 in985.4 mb - 0.00 in0.0 mm 0.61 in15.5 mm
03:00 PM 82.2°F27.9°C 81.9°F27.7°C 99% Calm Calm -- 29.08 in984.8 mb - 0.00 in0.0 mm 0.61 in15.5 mm
04:00 PM 82.0°F27.8°C 81.7°F27.6°C 99% Calm Calm 1.2 mph1.9 kmh 29.07 in984.4 mb - 0.00 in0.0 mm 0.61 in15.5 mm
05:00 PM 82.3°F27.9°C 82.0°F27.8°C 99% 2.3 mph NE3.7 kmh NE 3.5 mph5.6 kmh 29.06 in984.1 mb - 0.00 in0.0 mm 0.61 in15.5 mm
06:00 PM 81.9°F27.7°C 81.6°F27.6°C 99% Calm Calm -- 29.03 in983.1 mb - 0.00 in0.0 mm 0.61 in15.5 mm
07:00 PM 80.2°F26.8°C 79.9°F26.6°C 99% Calm Calm 1.2 mph1.9 kmh 29.01 in982.4 mb - 0.00 in0.0 mm 0.61 in15.5 mm
08:00 PM 78.3°F25.7°C 78.0°F25.6°C 99% Calm Calm -- 29.00 in982.1 mb - 0.00 in0.0 mm 0.61 in15.5 mm
09:00 PM 76.5°F24.7°C 76.2°F24.6°C 99% Calm Calm -- 29.00 in982.1 mb - 0.00 in0.0 mm 0.61 in15.5 mm
10:00 PM 75.7°F24.3°C 75.4°F24.1°C 99% Calm Calm 1.2 mph1.9 kmh 28.98 in981.4 mb - 0.00 in0.0 mm 0.61 in15.5 mm
11:00 PM 68.5°F20.3°C 68.2°F20.1°C 99% 1.2 mph SSE1.9 kmh SSE 4.6 mph7.4 kmh 29.06 in984.1 mb - 0.60 in15.2 mm 1.21 in30.7 mm